Time;durP1;ratioP1;P1;durP2;ratioP2;P2;SDS_P1;SDS_P2;PMS_P1;PMS_P2;Temp;Humidity;BMP_temperature;BMP_pressure;BME280_temperature;BME280_humidity;BME280_pressure;Samples;Min_cycle;Max_cycle;Signal;HPM_P1;HPM_P2
2024/02/10 00:01:46;;;;;;;4.30;1.52;;;;;;;18.72;49.13;98431.34;4976396;28;20443;-67
2024/02/10 00:04:14;;;;;;;5.60;1.55;;;;;;;18.73;49.10;98433.81;4976256;28;20067;-67
2024/02/10 00:06:40;;;;;;;3.38;1.50;;;;;;;18.82;49.20;98450.34;4976909;28;20491;-67
2024/02/10 00:09:08;;;;;;;4.30;1.60;;;;;;;18.70;49.20;98428.09;4976767;28;20483;-67
2024/02/10 00:11:34;;;;;;;3.83;1.70;;;;;;;18.70;49.21;98428.91;4977105;28;20030;-66
2024/02/10 00:13:59;;;;;;;3.72;1.50;;;;;;;18.75;48.96;98444.19;4977093;28;20041;-67
2024/02/10 00:16:28;;;;;;;2.63;1.38;;;;;;;18.77;49.01;98443.00;4976545;28;20505;-67
2024/02/10 00:18:57;;;;;;;4.88;1.67;;;;;;;18.75;49.11;98438.91;4976780;28;20165;-67
2024/02/10 00:21:28;;;;;;;3.08;1.23;;;;;;;18.66;49.09;98431.09;4976843;28;20413;-67
2024/02/10 00:23:54;;;;;;;2.97;1.35;;;;;;;18.62;49.17;98431.66;4976760;28;20034;-67
2024/02/10 00:26:21;;;;;;;3.58;1.40;;;;;;;18.75;49.25;98452.91;4977355;28;20037;-67
2024/02/10 00:28:48;;;;;;;4.38;1.30;;;;;;;18.59;49.19;98424.13;4980302;28;20455;-67
2024/02/10 00:31:14;;;;;;;4.15;1.60;;;;;;;18.76;49.09;98454.53;4980157;28;20403;-67
2024/02/10 00:33:39;;;;;;;3.72;1.50;;;;;;;18.69;49.21;98443.09;4979337;28;20042;-67
2024/02/10 00:36:05;;;;;;;5.10;1.63;;;;;;;18.74;49.08;98451.28;4980527;28;20038;-67
2024/02/10 00:38:30;;;;;;;4.53;1.33;;;;;;;18.59;49.16;98426.75;4980220;28;20038;-67
2024/02/10 00:41:03;;;;;;;2.85;1.25;;;;;;;18.64;49.04;98434.94;4980388;28;20485;-67
2024/02/10 00:43:28;;;;;;;3.33;1.55;;;;;;;18.58;48.91;98425.94;4979970;28;20035;-67
2024/02/10 00:45:54;;;;;;;3.53;1.50;;;;;;;18.64;49.12;98441.03;4979799;28;20041;-67
2024/02/10 00:48:19;;;;;;;3.97;1.25;;;;;;;18.67;49.09;98440.66;4980246;28;20095;-67
2024/02/10 00:50:45;;;;;;;4.45;1.35;;;;;;;18.65;49.23;98449.75;4980321;28;20051;-67
2024/02/10 00:53:11;;;;;;;2.88;1.40;;;;;;;18.56;48.99;98437.69;4980111;28;20472;-67
2024/02/10 00:55:36;;;;;;;3.20;1.20;;;;;;;18.53;49.08;98430.94;4979849;28;20049;-67
2024/02/10 00:58:05;;;;;;;3.00;1.35;;;;;;;18.63;49.26;98446.50;4979568;28;20042;-66
2024/02/10 01:00:32;;;;;;;3.47;1.40;;;;;;;18.51;49.09;98425.03;4979962;28;20519;-67
2024/02/10 01:02:57;;;;;;;2.60;1.27;;;;;;;18.65;49.10;98455.03;4978908;28;20042;-67
2024/02/10 01:05:23;;;;;;;3.50;1.27;;;;;;;18.62;49.20;98444.84;4979099;28;20057;-67
2024/02/10 01:07:49;;;;;;;3.47;1.58;;;;;;;18.61;48.87;98448.47;4979798;28;20035;-67
2024/02/10 01:10:15;;;;;;;5.03;1.42;;;;;;;18.48;49.11;98426.25;4979794;28;20026;-67
2024/02/10 01:12:40;;;;;;;2.95;1.15;;;;;;;18.46;49.14;98422.97;4979275;28;20392;-67
2024/02/10 01:15:07;;;;;;;2.88;1.30;;;;;;;18.52;49.11;98433.75;4979042;28;20034;-67
2024/02/10 01:17:32;;;;;;;3.67;1.60;;;;;;;18.59;49.08;98442.59;4978844;28;20476;-67
2024/02/10 01:19:57;;;;;;;4.60;1.50;;;;;;;18.46;49.00;98419.50;4979136;28;20088;-67
2024/02/10 01:22:26;;;;;;;3.90;1.60;;;;;;;18.46;48.95;98425.59;4977668;28;20100;-67
2024/02/10 01:24:54;;;;;;;4.63;1.20;;;;;;;18.58;49.09;98451.50;4979017;28;20080;-67
2024/02/10 01:27:26;;;;;;;5.95;1.42;;;;;;;18.57;49.07;98453.31;4978755;28;20352;-67
2024/02/10 01:29:56;;;;;;;3.33;1.40;;;;;;;18.55;49.22;98455.34;4979201;28;20027;-67
2024/02/10 01:32:23;;;;;;;3.35;1.52;;;;;;;18.55;49.10;98454.50;4978877;28;20029;-67
2024/02/10 01:34:50;;;;;;;3.35;1.30;;;;;;;18.42;49.16;98437.53;4978666;28;20598;-67
2024/02/10 01:37:19;;;;;;;3.15;1.33;;;;;;;18.49;48.91;98445.53;4978889;28;20030;-67
2024/02/10 01:39:45;;;;;;;2.60;1.23;;;;;;;18.45;49.02;98438.97;4976789;28;20088;-67
2024/02/10 01:42:14;;;;;;;2.80;1.25;;;;;;;18.37;49.00;98431.97;4977479;28;20388;-67
2024/02/10 01:44:43;;;;;;;2.90;1.20;;;;;;;18.56;49.02;98461.41;4978755;28;20046;-66
2024/02/10 01:47:10;;;;;;;3.35;1.30;;;;;;;18.51;48.88;98451.41;4978944;28;20535;-67
2024/02/10 01:49:37;;;;;;;3.65;1.30;;;;;;;18.48;49.08;98449.16;4978415;28;20067;-67
2024/02/10 01:52:06;;;;;;;3.05;1.15;;;;;;;18.53;48.85;98457.31;4978624;28;20161;-67
2024/02/10 01:54:33;;;;;;;4.25;1.50;;;;;;;18.38;49.20;98430.97;4978659;28;20030;-67
2024/02/10 01:56:59;;;;;;;3.75;1.38;;;;;;;18.39;48.99;98431.78;4978778;28;20476;-67
2024/02/10 01:59:26;;;;;;;3.03;1.10;;;;;;;18.47;48.77;98452.81;4978857;28;20080;-67
2024/02/10 02:01:52;;;;;;;2.90;1.27;;;;;;;18.47;48.92;98458.88;4978054;28;20027;-67
2024/02/10 02:04:19;;;;;;;3.95;1.48;;;;;;;18.51;48.78;98458.53;4978728;28;20026;-68
2024/02/10 02:06:44;;;;;;;3.75;1.20;;;;;;;18.48;48.92;98451.78;4978407;28;20495;-68
2024/02/10 02:09:11;;;;;;;2.72;1.30;;;;;;;18.49;48.86;98456.06;4978693;28;20038;-68
2024/02/10 02:11:49;;;;;;;2.97;1.30;;;;;;;18.38;48.83;98444.16;4978561;28;20044;-68
2024/02/10 02:14:15;;;;;;;3.45;1.30;;;;;;;18.38;48.93;98444.16;4978497;28;20562;-68
2024/02/10 02:16:46;;;;;;;4.50;1.45;;;;;;;18.43;48.95;98457.59;4978503;28;20383;-68
2024/02/10 02:19:16;;;;;;;5.18;1.25;;;;;;;18.35;48.78;98444.53;4978340;28;20172;-68
2024/02/10 02:21:42;;;;;;;3.95;1.38;;;;;;;18.43;48.95;98462.88;4978554;28;20039;-67
2024/02/10 02:24:08;;;;;;;3.50;1.40;;;;;;;18.31;48.85;98435.38;4977754;28;20495;-68
2024/02/10 02:26:33;;;;;;;3.53;1.20;;;;;;;18.34;48.89;98436.81;4978099;28;20065;-68
2024/02/10 02:28:59;;;;;;;3.40;1.20;;;;;;;18.28;49.04;98420.72;4976993;28;20118;-68
2024/02/10 02:31:25;;;;;;;4.85;1.33;;;;;;;18.28;48.93;98423.38;4977835;28;20076;-67
2024/02/10 02:33:51;;;;;;;3.88;1.58;;;;;;;18.37;49.03;98433.81;4977306;28;20038;-68
2024/02/10 02:36:18;;;;;;;2.95;1.10;;;;;;;18.44;48.75;98447.91;4977654;28;20061;-68
2024/02/10 02:38:44;;;;;;;2.80;1.48;;;;;;;18.43;48.88;98444.41;4977804;28;20055;-68
2024/02/10 02:41:10;;;;;;;2.40;1.08;;;;;;;18.41;48.69;98438.53;4977783;28;20552;-68
2024/02/10 02:43:35;;;;;;;3.03;1.30;;;;;;;18.29;48.77;98418.91;4977788;28;21230;-68
2024/02/10 02:46:02;;;;;;;2.10;1.00;;;;;;;18.32;48.81;98421.16;4977558;28;20038;-67
2024/02/10 02:48:27;;;;;;;4.05;1.35;;;;;;;18.22;48.69;98408.28;4977054;28;20034;-67
2024/02/10 02:50:54;;;;;;;3.35;1.10;;;;;;;18.27;48.75;98418.28;4976944;28;20046;-68
2024/02/10 02:53:20;;;;;;;4.28;1.27;;;;;;;18.39;48.73;98439.69;4977240;28;20066;-68
2024/02/10 02:55:45;;;;;;;2.88;1.25;;;;;;;18.29;48.96;98425.00;4976947;28;20151;-68
2024/02/10 02:58:11;;;;;;;4.35;1.20;;;;;;;18.24;48.73;98414.19;4977703;28;20023;-67
2024/02/10 03:00:38;;;;;;;3.83;1.38;;;;;;;18.23;48.82;98420.47;4978050;28;20035;-68
2024/02/10 03:03:03;;;;;;;3.70;1.23;;;;;;;18.31;48.60;98438.00;4976554;28;20129;-68
2024/02/10 03:05:32;;;;;;;3.22;1.25;;;;;;;18.39;48.72;98452.88;4977690;28;20113;-68
2024/02/10 03:07:58;;;;;;;3.13;1.05;;;;;;;18.36;48.79;98445.34;4977540;28;20165;-68
2024/02/10 03:10:23;;;;;;;2.75;1.30;;;;;;;18.35;48.48;98449.81;4977495;28;21354;-68
2024/02/10 03:12:49;;;;;;;2.85;1.05;;;;;;;18.24;48.80;98426.53;4977276;28;20039;-68
2024/02/10 03:15:14;;;;;;;2.35;1.10;;;;;;;18.24;48.53;98423.91;4976690;28;20081;-67
2024/02/10 03:17:40;;;;;;;2.60;1.25;;;;;;;18.35;48.68;98441.91;4977094;28;20034;-67
2024/02/10 03:20:06;;;;;;;2.38;1.20;;;;;;;18.36;48.53;98440.06;4977241;28;20037;-67
2024/02/10 03:22:32;;;;;;;2.72;1.13;;;;;;;18.31;48.69;98427.47;4977093;28;20475;-67
2024/02/10 03:24:57;;;;;;;3.13;1.30;;;;;;;18.31;48.70;98430.09;4977286;28;20038;-67
2024/02/10 03:27:23;;;;;;;2.38;1.10;;;;;;;18.18;48.68;98414.91;4977344;28;20061;-67
2024/02/10 03:29:49;;;;;;;3.17;1.30;;;;;;;18.34;48.55;98444.72;4977752;28;20086;-67
2024/02/10 03:32:15;;;;;;;2.88;1.13;;;;;;;18.33;48.59;98446.53;4976942;28;20041;-67
2024/02/10 03:34:40;;;;;;;2.95;1.00;;;;;;;18.31;48.49;98445.91;4976983;28;20035;-68
2024/02/10 03:37:06;;;;;;;3.33;1.20;;;;;;;18.33;48.61;98448.38;4977186;28;20476;-68
2024/02/10 03:39:32;;;;;;;2.70;1.20;;;;;;;18.19;48.58;98427.09;4977482;28;20081;-67
2024/02/10 03:41:58;;;;;;;4.35;1.63;;;;;;;18.17;48.76;98421.19;4977301;28;20054;-67
2024/02/10 03:44:23;;;;;;;2.80;1.10;;;;;;;18.26;48.56;98430.66;4976779;28;20026;-67
2024/02/10 03:46:50;;;;;;;4.18;1.42;;;;;;;18.16;48.56;98414.28;4976482;28;20030;-67
2024/02/10 03:49:15;;;;;;;2.13;1.05;;;;;;;18.26;48.57;98432.44;4977092;28;20830;-68
2024/02/10 03:51:41;;;;;;;3.40;1.10;;;;;;;18.17;48.43;98408.03;4975075;28;20349;-68
2024/02/10 03:54:09;;;;;;;4.35;1.20;;;;;;;18.26;48.70;98432.44;4976633;28;20122;-68
2024/02/10 03:56:36;;;;;;;2.63;1.10;;;;;;;18.22;48.38;98423.28;4976888;28;20072;-67
2024/02/10 03:59:02;;;;;;;3.40;1.40;;;;;;;18.15;48.60;98407.41;4976683;28;20485;-68
2024/02/10 04:01:27;;;;;;;2.63;1.20;;;;;;;18.24;48.54;98429.19;4978392;28;20022;-68
2024/02/10 04:03:55;;;;;;;2.20;1.10;;;;;;;18.22;48.48;98428.56;4980529;28;20391;-68
2024/02/10 04:06:23;;;;;;;2.67;1.13;;;;;;;18.17;48.48;98421.19;4981168;28;20054;-67
2024/02/10 04:08:49;;;;;;;4.25;1.30;;;;;;;18.13;48.41;98412.00;4980865;28;20026;-68
2024/02/10 04:11:16;;;;;;;3.38;1.20;;;;;;;18.13;48.50;98410.22;4981113;28;20120;-68
2024/02/10 04:13:43;;;;;;;2.55;1.25;;;;;;;18.12;48.49;98413.84;4980547;28;20041;-68
2024/02/10 04:16:12;;;;;;;3.08;1.23;;;;;;;18.22;48.38;98423.28;4971077;28;20039;-68
2024/02/10 04:18:38;;;;;;;3.40;1.40;;;;;;;18.21;48.40;98424.28;4980360;28;20031;-68
2024/02/10 04:21:04;;;;;;;2.08;1.00;;;;;;;18.25;48.54;98433.47;4980131;28;20061;-67
2024/02/10 04:23:32;;;;;;;3.40;1.15;;;;;;;18.22;48.29;98441.75;4980236;28;20466;-68
2024/02/10 04:25:58;;;;;;;4.05;1.30;;;;;;;18.18;48.41;98428.09;4979674;28;20468;-68
2024/02/10 04:28:24;;;;;;;2.33;1.13;;;;;;;18.11;48.60;98420.09;4980187;28;20075;-67
2024/02/10 04:30:51;;;;;;;3.20;1.23;;;;;;;18.22;48.32;98436.47;4980718;28;20034;-68
2024/02/10 04:33:16;;;;;;;3.55;1.15;;;;;;;18.17;48.24;98436.22;4978826;28;20046;-68
2024/02/10 04:35:41;;;;;;;2.53;1.10;;;;;;;18.04;48.44;98413.94;4980368;28;20035;-68
2024/02/10 04:38:08;;;;;;;3.58;1.30;;;;;;;18.15;48.46;98436.38;4980632;28;20037;-68
2024/02/10 04:40:34;;;;;;;2.45;1.00;;;;;;;18.14;48.52;98440.00;4980514;28;20031;-68
2024/02/10 04:43:00;;;;;;;2.17;1.10;;;;;;;18.16;48.68;98448.53;4979958;28;20178;-68
2024/02/10 04:45:27;;;;;;;2.70;1.10;;;;;;;18.18;48.63;98443.91;4979389;28;20205;-67
2024/02/10 04:47:53;;;;;;;3.20;1.20;;;;;;;18.15;48.59;98446.09;4979797;28;20487;-68
2024/02/10 04:50:19;;;;;;;2.97;1.02;;;;;;;18.15;48.61;98446.09;4979189;28;20578;-68
2024/02/10 04:52:45;;;;;;;3.55;1.10;;;;;;;18.17;48.38;98452.81;4979664;28;20033;-69
2024/02/10 04:55:10;;;;;;;3.45;1.33;;;;;;;18.03;48.59;98425.47;4979645;28;20042;-68
2024/02/10 04:57:35;;;;;;;1.88;0.90;;;;;;;18.14;48.72;98442.66;4979268;28;20038;-68
2024/02/10 05:00:10;;;;;;;3.88;1.10;;;;;;;18.17;48.56;98450.19;4979597;28;20034;-68
2024/02/10 05:02:36;;;;;;;2.90;1.20;;;;;;;18.02;48.56;98428.28;4979357;28;20435;-67
2024/02/10 05:05:04;;;;;;;2.10;1.05;;;;;;;18.03;48.73;98427.28;4979789;28;20026;-68
2024/02/10 05:07:29;;;;;;;3.05;1.20;;;;;;;18.04;48.30;98429.75;4979724;28;20551;-68
2024/02/10 05:09:54;;;;;;;3.00;1.10;;;;;;;18.04;48.47;98426.28;4979474;28;20121;-67
2024/02/10 05:12:20;;;;;;;2.25;1.00;;;;;;;17.98;48.55;98414.66;4979240;28;20027;-68
2024/02/10 05:14:45;;;;;;;3.30;1.17;;;;;;;18.11;48.48;98441.19;4978060;28;20236;-68
2024/02/10 05:17:13;;;;;;;1.92;1.17;;;;;;;18.09;48.19;98437.91;4979090;28;20033;-68
2024/02/10 05:19:38;;;;;;;3.08;1.10;;;;;;;18.12;48.50;98444.66;4978984;28;20041;-68
2024/02/10 05:22:08;;;;;;;2.33;0.95;;;;;;;18.12;48.53;98452.56;4978639;28;20030;-68
2024/02/10 05:24:40;;;;;;;2.55;1.00;;;;;;;18.13;48.48;98465.56;4978582;28;20026;-68
2024/02/10 05:27:07;;;;;;;3.80;1.05;;;;;;;18.10;48.36;98449.28;4979856;28;20056;-67
2024/02/10 05:29:34;;;;;;;2.88;1.27;;;;;;;18.00;48.28;98436.38;4978764;28;20562;-68
2024/02/10 05:31:59;;;;;;;2.53;1.00;;;;;;;18.09;48.38;98452.94;4977580;28;20031;-68
2024/02/10 05:34:24;;;;;;;3.28;1.30;;;;;;;18.04;48.31;98442.09;4978511;28;20034;-68
2024/02/10 05:36:50;;;;;;;2.25;1.00;;;;;;;18.10;48.35;98455.38;4977475;28;20085;-68
2024/02/10 05:39:18;;;;;;;2.10;1.17;;;;;;;18.03;48.17;98440.47;4978471;28;20038;-68
2024/02/10 05:41:43;;;;;;;2.72;1.20;;;;;;;17.99;48.37;98434.75;4978847;28;20050;-68
2024/02/10 05:44:12;;;;;;;2.53;1.10;;;;;;;18.00;48.27;98438.19;4978178;28;20031;-68
2024/02/10 05:46:45;;;;;;;2.35;1.17;;;;;;;18.09;48.30;98456.38;4977381;28;20031;-68
2024/02/10 05:49:10;;;;;;;2.72;1.05;;;;;;;17.99;48.38;98439.19;4978790;28;20066;-68
2024/02/10 05:51:38;;;;;;;2.10;1.10;;;;;;;18.09;48.16;98466.09;4978488;28;20080;-67
2024/02/10 05:54:05;;;;;;;3.05;1.10;;;;;;;18.06;48.45;98453.28;4978423;28;20045;-68
2024/02/10 05:56:30;;;;;;;3.55;1.70;;;;;;;17.94;48.40;98437.94;4978544;28;20042;-68
2024/02/10 05:58:56;;;;;;;2.53;1.13;;;;;;;18.07;48.27;98458.38;4978622;28;20097;-68
2024/02/10 06:01:21;;;;;;;2.45;1.08;;;;;;;18.10;48.32;98468.56;4978143;28;20026;-67
2024/02/10 06:03:49;;;;;;;4.70;0.95;;;;;;;18.09;48.36;98463.47;4976809;28;20039;-68
2024/02/10 06:06:15;;;;;;;3.10;1.20;;;;;;;17.92;48.24;98442.53;4978117;28;20062;-68
2024/02/10 06:08:40;;;;;;;3.35;0.90;;;;;;;18.04;48.25;98461.38;4978062;28;20054;-68
2024/02/10 06:11:06;;;;;;;3.00;1.30;;;;;;;17.92;48.44;98445.19;4977817;28;20532;-68
2024/02/10 06:13:32;;;;;;;2.55;1.02;;;;;;;17.93;48.36;98456.56;4978369;28;20026;-68
2024/02/10 06:15:59;;;;;;;3.05;0.98;;;;;;;17.93;48.30;98464.47;4978582;28;20468;-68
2024/02/10 06:18:27;;;;;;;3.25;0.98;;;;;;;18.05;48.38;98483.28;4978917;28;20037;-68
2024/02/10 06:20:53;;;;;;;2.10;1.10;;;;;;;18.07;48.33;98491.81;4977798;28;20423;-68
2024/02/10 06:23:20;;;;;;;2.05;0.93;;;;;;;18.10;48.29;98484.38;4977704;28;20034;-67
2024/02/10 06:25:45;;;;;;;3.63;1.15;;;;;;;18.04;48.30;98471.09;4978131;28;20034;-67
2024/02/10 06:28:11;;;;;;;2.20;0.87;;;;;;;18.08;48.38;98475.81;4976803;28;20034;-68
2024/02/10 06:30:36;;;;;;;2.88;1.00;;;;;;;18.12;48.54;98479.72;4978390;28;20305;-67
2024/02/10 06:33:04;;;;;;;1.75;0.90;;;;;;;18.16;48.42;98490.72;4977701;28;20076;-67
2024/02/10 06:35:29;;;;;;;2.35;1.00;;;;;;;18.02;48.59;98471.25;4977673;28;20034;-67
2024/02/10 06:37:55;;;;;;;2.35;1.00;;;;;;;18.17;48.51;98495.00;4977703;28;20041;-67
2024/02/10 06:40:20;;;;;;;2.17;0.98;;;;;;;18.11;48.42;98483.34;4977441;28;20164;-67
2024/02/10 06:42:51;;;;;;;2.38;0.90;;;;;;;18.11;48.40;98488.63;4978217;28;20090;-67
2024/02/10 06:45:20;;;;;;;2.30;0.80;;;;;;;18.21;48.64;98504.16;4977699;28;20061;-67
2024/02/10 06:47:46;;;;;;;1.75;0.80;;;;;;;18.12;48.39;98486.84;4978089;28;20378;-68
2024/02/10 06:50:23;;;;;;;2.13;1.00;;;;;;;18.25;48.54;98505.47;4977142;28;20050;-68
2024/02/10 06:52:53;;;;;;;2.00;0.82;;;;;;;18.30;48.66;98510.19;4977754;28;20038;-68
2024/02/10 06:55:19;;;;;;;1.77;0.88;;;;;;;18.28;48.62;98509.56;4977230;28;20411;-68
2024/02/10 06:57:48;;;;;;;3.10;1.20;;;;;;;18.25;48.39;98507.28;4978005;28;20031;-68
2024/02/10 07:00:14;;;;;;;2.38;1.00;;;;;;;18.22;48.42;98497.91;4977290;28;20494;-68
2024/02/10 07:02:44;;;;;;;2.17;0.90;;;;;;;18.37;48.49;98518.19;4975979;28;20545;-68
2024/02/10 07:05:15;;;;;;;1.65;0.80;;;;;;;18.38;48.62;98523.28;4977132;28;20076;-69
2024/02/10 07:07:46;;;;;;;2.97;1.00;;;;;;;18.28;48.69;98510.38;4977790;28;20077;-68
2024/02/10 07:10:16;;;;;;;2.42;0.98;;;;;;;18.26;48.58;98508.91;4977401;28;20035;-68
2024/02/10 07:12:46;;;;;;;2.15;1.00;;;;;;;18.36;48.57;98530.56;4977487;28;20034;-68
2024/02/10 07:15:17;;;;;;;3.35;0.88;;;;;;;18.29;48.61;98516.44;4977163;28;20040;-68
2024/02/10 07:17:43;;;;;;;2.70;0.80;;;;;;;18.43;48.40;98533.28;4977214;28;20039;-68
2024/02/10 07:20:18;;;;;;;2.05;0.90;;;;;;;18.38;48.44;98528.56;4976856;28;20467;-68
2024/02/10 07:22:45;;;;;;;1.83;0.80;;;;;;;18.40;48.24;98525.72;4977349;28;20531;-68
2024/02/10 07:25:11;;;;;;;2.05;0.80;;;;;;;18.43;48.40;98530.66;4977235;28;20423;-68
2024/02/10 07:27:37;;;;;;;1.13;0.63;;;;;;;18.38;48.40;98527.75;4976975;28;20035;-68
2024/02/10 07:30:03;;;;;;;2.22;0.85;;;;;;;18.31;48.36;98519.75;4977151;28;20113;-68
2024/02/10 07:32:29;;;;;;;2.35;1.10;;;;;;;18.23;48.58;98512.75;4977769;28;20093;-68
2024/02/10 07:34:55;;;;;;;2.25;0.90;;;;;;;18.44;48.28;98548.13;4977467;28;20074;-68
2024/02/10 07:37:21;;;;;;;2.22;0.80;;;;;;;18.33;48.18;98530.91;4979693;28;20445;-68
2024/02/10 07:39:50;;;;;;;1.88;0.88;;;;;;;18.39;48.22;98540.75;4981158;28;20038;-68
2024/02/10 07:42:16;;;;;;;1.73;0.80;;;;;;;18.44;48.33;98543.66;4981594;28;20139;-68
2024/02/10 07:44:41;;;;;;;1.98;0.93;;;;;;;18.31;48.26;98527.66;4981283;28;20031;-68
2024/02/10 07:47:10;;;;;;;2.55;1.00;;;;;;;18.42;48.26;98556.22;4981262;28;20113;-68
2024/02/10 07:49:35;;;;;;;2.60;1.17;;;;;;;18.30;48.44;98541.81;4979525;28;20396;-68
2024/02/10 07:52:01;;;;;;;1.90;0.80;;;;;;;18.42;48.02;98558.84;4981260;28;20093;-68
2024/02/10 07:54:27;;;;;;;1.67;0.70;;;;;;;18.43;48.33;98563.09;4980887;28;20038;-68
2024/02/10 07:56:54;;;;;;;1.95;0.90;;;;;;;18.41;48.30;98559.03;4981208;28;20121;-68
2024/02/10 07:59:20;;;;;;;2.25;0.95;;;;;;;18.41;48.47;98565.09;4981094;28;20031;-68
2024/02/10 08:01:46;;;;;;;1.77;0.65;;;;;;;18.30;48.50;98544.47;4980777;28;20148;-68
2024/02/10 08:04:12;;;;;;;2.72;1.05;;;;;;;18.43;48.14;98570.19;4979095;28;20042;-68
2024/02/10 08:06:37;;;;;;;2.70;0.98;;;;;;;18.43;48.57;98567.56;4981083;28;20364;-68
2024/02/10 08:09:03;;;;;;;2.28;1.10;;;;;;;18.44;48.60;98579.75;4979903;28;20037;-68
2024/02/10 08:11:29;;;;;;;2.90;1.00;;;;;;;18.30;48.69;98553.19;4980881;28;20027;-68
2024/02/10 08:13:55;;;;;;;2.63;1.20;;;;;;;18.40;48.71;98570.56;4981164;28;20037;-68
2024/02/10 08:16:27;;;;;;;2.40;1.00;;;;;;;18.41;48.70;98577.47;4980433;28;20034;-68
2024/02/10 08:19:01;;;;;;;3.10;1.20;;;;;;;18.27;48.84;98558.00;4980126;28;20030;-68
2024/02/10 08:21:30;;;;;;;3.30;1.10;;;;;;;18.33;48.91;98567.84;4980837;28;20038;-69
2024/02/10 08:23:57;;;;;;;3.85;1.30;;;;;;;18.43;49.07;98578.91;4980574;28;20039;-68
2024/02/10 08:26:27;;;;;;;3.53;1.20;;;;;;;18.34;49.01;98560.72;4980793;28;20034;-68
2024/02/10 08:28:57;;;;;;;3.70;1.17;;;;;;;18.33;49.15;98562.56;4980642;28;20538;-68
2024/02/10 08:31:23;;;;;;;4.80;1.20;;;;;;;18.48;49.55;98587.13;4980755;28;20383;-68
2024/02/10 08:33:49;;;;;;;2.83;1.20;;;;;;;18.44;49.52;98577.13;4980412;28;20105;-68
2024/02/10 08:36:16;;;;;;;3.75;1.65;;;;;;;18.36;49.37;98567.47;4980096;28;20109;-68
2024/02/10 08:38:42;;;;;;;2.97;1.40;;;;;;;18.48;49.74;98581.84;4980088;28;20065;-68
2024/02/10 08:41:08;;;;;;;2.80;1.20;;;;;;;18.33;49.53;98564.38;4980429;28;20033;-68
2024/02/10 08:43:36;;;;;;;3.08;1.33;;;;;;;18.49;49.26;98593.22;4980482;28;20022;-68
2024/02/10 08:46:01;;;;;;;5.00;1.20;;;;;;;18.39;49.31;98566.28;4979949;28;20038;-68
2024/02/10 08:48:27;;;;;;;3.13;1.25;;;;;;;18.45;49.31;98581.38;4979433;28;20030;-69
2024/02/10 08:50:53;;;;;;;3.15;1.05;;;;;;;18.46;49.38;98590.94;4979374;28;20051;-68
2024/02/10 08:53:19;;;;;;;3.92;1.10;;;;;;;18.48;49.37;98602.97;4980106;28;20100;-67
2024/02/10 08:55:45;;;;;;;5.25;1.65;;;;;;;18.43;49.44;98589.47;4976942;28;20133;-66
2024/02/10 08:58:10;;;;;;;5.72;1.33;;;;;;;18.45;49.63;98594.56;4977808;28;20121;-68
2024/02/10 09:00:37;;;;;;;3.97;1.30;;;;;;;18.38;49.77;98583.13;4973417;28;20526;-68
2024/02/10 09:03:05;;;;;;;2.42;1.10;;;;;;;18.48;49.53;98599.47;4975207;28;20064;-69
2024/02/10 09:05:30;;;;;;;3.72;1.33;;;;;;;18.38;49.76;98585.75;4977724;28;20493;-69
2024/02/10 09:07:55;;;;;;;5.20;1.38;;;;;;;18.37;49.52;98581.47;4974544;28;20470;-69
2024/02/10 09:10:21;;;;;;;4.30;1.20;;;;;;;18.34;49.65;98574.75;4976563;28;20049;-69
2024/02/10 09:12:46;;;;;;;3.75;1.40;;;;;;;18.35;49.38;98581.66;4978576;28;20030;-69
2024/02/10 09:15:12;;;;;;;3.60;1.30;;;;;;;18.41;49.59;98585.41;4978791;28;20046;-68
2024/02/10 09:17:37;;;;;;;3.20;1.30;;;;;;;18.35;49.45;98584.28;4978773;28;20084;-69
2024/02/10 09:20:08;;;;;;;4.15;1.30;;;;;;;18.48;49.76;98591.56;4978772;28;20106;-69
2024/02/10 09:22:33;;;;;;;4.80;1.42;;;;;;;18.46;49.54;98590.94;4979036;28;20065;-69
2024/02/10 09:24:59;;;;;;;3.17;1.27;;;;;;;18.40;49.64;98589.84;4978486;28;20559;-69
2024/02/10 09:27:24;;;;;;;3.00;1.30;;;;;;;18.46;49.82;98593.56;4978704;28;20532;-70
2024/02/10 09:29:51;;;;;;;3.43;1.30;;;;;;;18.49;49.58;98595.84;4979101;28;20034;-69
2024/02/10 09:32:16;;;;;;;2.97;1.17;;;;;;;18.48;49.90;98594.22;4979324;28;20426;-70
2024/02/10 09:34:42;;;;;;;2.83;1.20;;;;;;;18.47;49.69;98589.94;4979357;28;20117;-69
2024/02/10 09:37:08;;;;;;;3.57;1.47;;;;;;;18.48;49.71;98594.22;4978799;28;20037;-69
2024/02/10 09:39:37;;;;;;;3.72;1.60;;;;;;;18.38;49.67;98580.47;4977770;28;20617;-70
2024/02/10 09:42:08;;;;;;;3.28;1.27;;;;;;;18.50;49.71;98597.50;4979295;28;20125;-70
2024/02/10 09:44:34;;;;;;;7.68;1.77;;;;;;;18.46;49.63;98590.94;4978891;28;20045;-69
2024/02/10 09:47:01;;;;;;;2.78;1.10;;;;;;;18.43;49.63;98583.38;4978763;28;20027;-70
2024/02/10 09:49:28;;;;;;;4.22;1.20;;;;;;;18.54;49.79;98605.88;4978945;28;20456;-70
2024/02/10 09:51:53;;;;;;;5.45;1.52;;;;;;;18.51;49.95;98607.03;4978895;28;20053;-69
2024/02/10 09:54:19;;;;;;;3.22;1.10;;;;;;;18.48;49.75;98602.13;4978914;28;20030;-68
2024/02/10 09:56:44;;;;;;;3.28;1.05;;;;;;;18.54;49.86;98604.03;4979241;28;20463;-68
2024/02/10 09:59:18;;;;;;;3.28;1.20;;;;;;;18.53;49.92;98604.22;4978558;28;20162;-70
2024/02/10 10:01:43;;;;;;;3.97;1.05;;;;;;;18.49;49.84;98601.13;4968801;28;20085;-69
2024/02/10 10:04:11;;;;;;;5.55;1.50;;;;;;;18.52;49.88;98608.69;4978984;28;20034;-69
2024/02/10 10:06:41;;;;;;;3.75;1.23;;;;;;;18.44;49.91;98587.69;4978806;28;20034;-71
2024/02/10 10:09:08;;;;;;;4.57;1.30;;;;;;;18.52;49.73;98602.56;4977071;28;20045;-72
2024/02/10 10:11:33;;;;;;;3.30;1.30;;;;;;;18.47;49.96;98600.50;4978891;28;20113;-72
2024/02/10 10:14:00;;;;;;;2.13;1.00;;;;;;;18.54;49.81;98613.78;4978643;28;20078;-72
2024/02/10 10:16:25;;;;;;;3.08;1.33;;;;;;;18.46;49.99;98604.13;4978434;28;20821;-73
2024/02/10 10:18:55;;;;;;;3.50;1.10;;;;;;;18.42;49.96;98594.94;4979186;28;20105;-72
2024/02/10 10:21:20;;;;;;;2.58;1.10;;;;;;;18.41;50.04;98595.94;4978267;28;20037;-72
2024/02/10 10:23:49;;;;;;;2.78;1.17;;;;;;;18.41;50.23;98593.31;4978283;28;20027;-72
2024/02/10 10:26:14;;;;;;;3.20;1.00;;;;;;;18.44;50.10;98600.88;4978813;28;20046;-72
2024/02/10 10:28:41;;;;;;;2.75;1.10;;;;;;;18.45;50.07;98597.19;4977044;28;20034;-74
2024/02/10 10:31:07;;;;;;;4.00;1.20;;;;;;;18.54;50.08;98608.50;4977496;28;20042;-72
2024/02/10 10:33:33;;;;;;;3.35;1.10;;;;;;;18.54;50.28;98608.50;4977631;28;20034;-73
2024/02/10 10:36:02;;;;;;;3.22;1.23;;;;;;;18.55;49.98;98613.59;4977076;28;20102;-72
2024/02/10 10:38:29;;;;;;;2.67;1.10;;;;;;;18.59;50.15;98614.03;4977189;28;20101;-72
2024/02/10 10:40:56;;;;;;;3.55;1.38;;;;;;;18.45;50.19;98599.84;4975577;28;20466;-73
2024/02/10 10:43:24;;;;;;;4.22;1.50;;;;;;;18.56;50.12;98619.69;4976727;28;20034;-71
2024/02/10 10:45:49;;;;;;;3.67;1.40;;;;;;;18.60;50.58;98623.59;4976331;28;20117;-72
2024/02/10 10:48:15;;;;;;;3.67;1.10;;;;;;;18.59;50.25;98603.50;4977129;28;20144;-72
2024/02/10 10:50:41;;;;;;;5.30;1.50;;;;;;;18.52;50.45;98597.28;4974331;28;20046;-74
2024/02/10 10:53:09;;;;;;;4.40;1.30;;;;;;;18.59;50.37;98606.13;4977085;28;20130;-73
2024/02/10 10:55:45;;;;;;;3.97;1.30;;;;;;;18.64;50.37;98609.88;4976647;28;20064;-73
2024/02/10 10:58:16;;;;;;;2.88;1.20;;;;;;;18.40;50.30;98566.09;4976326;28;20114;-72
2024/02/10 11:00:44;;;;;;;3.75;1.13;;;;;;;18.53;50.40;98586.56;4976637;28;20379;-72
2024/02/10 11:03:12;;;;;;;3.05;1.35;;;;;;;18.56;50.46;98588.03;4976562;28;20039;-70
2024/02/10 11:05:42;;;;;;;3.50;1.33;;;;;;;18.55;50.39;98592.50;4974720;28;20034;-76
2024/02/10 11:08:13;;;;;;;3.85;1.10;;;;;;;18.64;50.36;98601.97;4966964;28;20045;-75
2024/02/10 11:10:44;;;;;;;3.47;1.23;;;;;;;18.63;50.58;98595.03;4976435;28;20182;-71
2024/02/10 11:13:21;;;;;;;2.92;1.35;;;;;;;18.60;50.48;98587.47;4976116;28;20038;-71
2024/02/10 11:15:47;;;;;;;2.78;1.30;;;;;;;18.68;50.58;98595.31;4975595;28;20042;-70
2024/02/10 11:18:19;;;;;;;2.80;1.30;;;;;;;18.58;50.47;98575.47;4976262;28;20113;-71
2024/02/10 11:20:44;;;;;;;2.53;1.02;;;;;;;18.65;50.44;98582.47;4975204;28;20030;-70
2024/02/10 11:23:21;;;;;;;4.60;1.08;;;;;;;18.61;50.15;98573.31;4975713;28;20439;-69
2024/02/10 11:25:47;;;;;;;3.45;1.20;;;;;;;18.60;50.18;98562.94;4975117;28;20034;-72
2024/02/10 11:28:23;;;;;;;3.95;1.20;;;;;;;18.61;50.25;98559.28;4976100;28;20030;-72
2024/02/10 11:30:51;;;;;;;4.93;1.10;;;;;;;18.73;50.27;98581.56;4976716;28;20038;-71
2024/02/10 11:33:23;;;;;;;2.40;1.02;;;;;;;18.60;50.20;98555.03;4976723;28;20042;-70